createdAt,value
2018-12-09T00:01:31.533Z,25.20
2018-12-09T00:03:59.767Z,23.80
2018-12-09T00:06:27.921Z,26.57
2018-12-09T00:08:56.445Z,21.83
2018-12-09T00:11:24.674Z,26.93
2018-12-09T00:13:52.832Z,25.63
2018-12-09T00:16:20.947Z,29.00
2018-12-09T00:18:49.058Z,22.20
2018-12-09T00:21:17.315Z,28.47
2018-12-09T00:23:45.410Z,32.63
2018-12-09T00:26:13.575Z,23.33
2018-12-09T00:28:41.760Z,27.20
2018-12-09T00:31:09.849Z,27.30
2018-12-09T00:33:38.017Z,34.03
2018-12-09T00:36:06.174Z,28.17
2018-12-09T00:38:34.372Z,31.60
2018-12-09T00:41:02.846Z,26.20
2018-12-09T00:43:31.418Z,25.93
2018-12-09T00:45:59.712Z,23.87
2018-12-09T00:48:27.886Z,24.63
2018-12-09T00:50:56.021Z,25.93
2018-12-09T00:53:24.913Z,25.80
2018-12-09T00:55:53.104Z,22.73
2018-12-09T00:58:21.514Z,21.93
2018-12-09T01:00:49.869Z,25.07
2018-12-09T01:03:18.968Z,20.40
2018-12-09T01:05:47.671Z,23.80
2018-12-09T01:08:15.856Z,16.73
2018-12-09T01:10:44.262Z,28.43
2018-12-09T01:13:12.544Z,22.20
2018-12-09T01:15:40.892Z,23.27
2018-12-09T01:18:08.992Z,20.43
2018-12-09T01:20:38.181Z,20.97
2018-12-09T01:23:06.364Z,21.67
2018-12-09T01:25:34.585Z,21.60
2018-12-09T01:28:02.739Z,17.57
2018-12-09T01:30:30.837Z,20.90
2018-12-09T01:32:59.018Z,23.77
2018-12-09T01:35:27.237Z,17.13
2018-12-09T01:37:55.340Z,23.97
2018-12-09T01:40:25.405Z,23.50
2018-12-09T01:42:54.300Z,22.97
2018-12-09T01:45:23.356Z,23.83
2018-12-09T01:47:51.513Z,23.63
2018-12-09T01:50:19.600Z,21.87
2018-12-09T01:52:51.070Z,23.83
2018-12-09T01:55:20.000Z,25.37
2018-12-09T01:57:49.375Z,18.97
2018-12-09T02:00:17.527Z,22.83
2018-12-09T02:02:45.792Z,22.70
2018-12-09T02:05:13.957Z,21.90
2018-12-09T02:07:42.132Z,18.97
2018-12-09T02:10:10.275Z,25.97
2018-12-09T02:12:38.377Z,20.13
2018-12-09T02:15:07.843Z,20.20
2018-12-09T02:17:36.031Z,21.27
2018-12-09T02:20:04.409Z,26.83
2018-12-09T02:22:33.215Z,20.77
2018-12-09T02:25:01.968Z,13.77
2018-12-09T02:27:30.104Z,20.93
2018-12-09T02:29:58.582Z,19.43
2018-12-09T02:32:26.739Z,26.17
2018-12-09T02:34:54.838Z,17.27
2018-12-09T02:37:23.103Z,21.43
2018-12-09T02:39:51.381Z,16.90
2018-12-09T02:42:19.992Z,20.77
2018-12-09T02:44:48.253Z,24.57
2018-12-09T02:47:16.407Z,17.17
2018-12-09T02:49:44.508Z,23.13
2018-12-09T02:52:13.489Z,19.67
2018-12-09T02:54:42.607Z,21.60
2018-12-09T02:57:10.783Z,25.07
2018-12-09T02:59:39.010Z,16.03
2018-12-09T03:02:07.190Z,16.07
2018-12-09T03:04:35.353Z,17.87
2018-12-09T03:07:03.517Z,22.47
2018-12-09T03:09:31.701Z,18.97
2018-12-09T03:11:59.857Z,26.67
2018-12-09T03:14:29.049Z,16.83
2018-12-09T03:16:57.191Z,18.40
2018-12-09T03:19:25.354Z,23.10
2018-12-09T03:21:53.440Z,30.07
2018-12-09T03:24:21.554Z,31.50
2018-12-09T03:26:49.661Z,23.47
2018-12-09T03:29:17.769Z,29.53
2018-12-09T03:31:45.965Z,27.00
2018-12-09T03:34:14.201Z,20.13
2018-12-09T03:36:42.477Z,27.37
2018-12-09T03:39:10.632Z,25.50
2018-12-09T03:41:38.893Z,32.60
2018-12-09T03:44:07.196Z,32.67
2018-12-09T03:46:35.354Z,31.57
2018-12-09T03:49:04.033Z,24.30
2018-12-09T03:51:32.249Z,23.50
2018-12-09T03:54:00.373Z,20.80
2018-12-09T03:56:28.552Z,24.03
2018-12-09T03:58:56.705Z,25.70
2018-12-09T04:01:25.131Z,21.33
2018-12-09T04:03:53.209Z,19.73
2018-12-09T04:06:21.398Z,25.13
2018-12-09T04:08:49.552Z,25.07
2018-12-09T04:11:17.790Z,23.00
2018-12-09T04:13:46.379Z,29.47
2018-12-09T04:16:14.478Z,24.63
2018-12-09T04:18:42.632Z,25.53
2018-12-09T04:21:14.161Z,25.27
2018-12-09T04:23:42.653Z,25.17
2018-12-09T04:26:10.840Z,28.20
2018-12-09T04:28:38.981Z,23.30
2018-12-09T04:31:07.174Z,30.17
2018-12-09T04:33:35.361Z,20.23
2018-12-09T04:36:03.785Z,24.00
2018-12-09T04:38:31.997Z,21.73
2018-12-09T04:41:00.128Z,24.43
2018-12-09T04:43:28.257Z,23.07
2018-12-09T04:45:56.362Z,22.83
2018-12-09T04:48:24.515Z,23.27
2018-12-09T04:50:52.805Z,27.80
2018-12-09T04:53:20.964Z,18.20
2018-12-09T04:55:49.078Z,23.47
2018-12-09T04:58:17.167Z,26.87
2018-12-09T05:00:53.148Z,26.87
2018-12-09T05:03:21.534Z,23.73
2018-12-09T05:05:49.668Z,29.20
2018-12-09T05:08:17.776Z,21.97
2018-12-09T05:10:45.920Z,25.93
2018-12-09T05:13:14.022Z,23.03
2018-12-09T05:15:42.199Z,25.53
2018-12-09T05:18:10.407Z,34.47
2018-12-09T05:20:38.548Z,28.83
2018-12-09T05:23:06.733Z,23.67
2018-12-09T05:25:34.881Z,27.20
2018-12-09T05:28:03.053Z,23.80
2018-12-09T05:30:31.242Z,21.57
2018-12-09T05:32:59.488Z,24.13
2018-12-09T05:35:27.603Z,26.20
2018-12-09T05:37:55.752Z,30.83
2018-12-09T05:40:23.906Z,20.40
2018-12-09T05:42:52.093Z,19.63
2018-12-09T05:45:20.199Z,28.37
2018-12-09T05:47:48.364Z,25.83
2018-12-09T05:50:16.540Z,21.20
2018-12-09T05:52:44.728Z,22.80
2018-12-09T05:55:12.838Z,22.60
2018-12-09T05:57:41.048Z,27.40
2018-12-09T06:00:09.228Z,26.13
2018-12-09T06:02:43.098Z,28.43
2018-12-09T06:05:11.202Z,21.27
2018-12-09T06:07:39.385Z,24.57
2018-12-09T06:10:07.880Z,21.10
2018-12-09T06:12:36.023Z,25.33
2018-12-09T06:15:04.521Z,21.20
2018-12-09T06:17:32.701Z,22.87
2018-12-09T06:20:00.873Z,22.07
2018-12-09T06:22:29.045Z,26.93
2018-12-09T06:24:57.217Z,24.30
2018-12-09T06:27:25.344Z,19.33
2018-12-09T06:29:53.549Z,23.20
2018-12-09T06:32:21.737Z,27.67
2018-12-09T06:34:50.793Z,19.87
2018-12-09T06:37:18.998Z,22.40
2018-12-09T06:39:47.105Z,22.67
2018-12-09T06:42:15.246Z,19.20
2018-12-09T06:44:43.329Z,23.87
2018-12-09T06:47:11.461Z,22.17
2018-12-09T06:49:39.564Z,28.97
2018-12-09T06:52:07.709Z,24.93
2018-12-09T06:54:35.909Z,19.77
2018-12-09T06:57:04.097Z,19.50
2018-12-09T06:59:32.249Z,19.70
2018-12-09T07:02:00.378Z,17.00
2018-12-09T07:04:28.495Z,20.77
2018-12-09T07:06:56.677Z,20.60
2018-12-09T07:09:24.830Z,25.37
2018-12-09T07:11:53.713Z,19.87
2018-12-09T07:14:21.815Z,22.40
2018-12-09T07:16:49.923Z,21.53
2018-12-09T07:19:18.054Z,21.80
2018-12-09T07:21:46.212Z,21.97
2018-12-09T07:24:14.738Z,27.03
2018-12-09T07:26:42.997Z,25.43
2018-12-09T07:29:11.100Z,27.63
2018-12-09T07:31:39.245Z,25.17
2018-12-09T07:34:07.401Z,32.50
2018-12-09T07:36:35.828Z,27.07
2018-12-09T07:39:05.144Z,22.70
2018-12-09T07:41:33.316Z,23.93
2018-12-09T07:44:01.493Z,24.50
2018-12-09T07:46:29.642Z,28.10
2018-12-09T07:48:58.134Z,23.57
2018-12-09T07:51:26.378Z,25.80
2018-12-09T07:53:54.480Z,18.73
2018-12-09T07:56:22.639Z,24.43
2018-12-09T07:58:50.863Z,25.70
2018-12-09T08:01:19.029Z,17.70
2018-12-09T08:03:47.147Z,16.27
2018-12-09T08:06:15.337Z,21.13
2018-12-09T08:08:43.517Z,25.43
2018-12-09T08:11:11.628Z,18.97
2018-12-09T08:13:39.753Z,17.00
2018-12-09T08:16:07.889Z,21.77
2018-12-09T08:18:36.023Z,14.97
2018-12-09T08:21:05.127Z,20.63
2018-12-09T08:23:33.237Z,21.87
2018-12-09T08:26:01.425Z,17.57
2018-12-09T08:28:29.601Z,20.60
2018-12-09T08:30:57.774Z,24.20
2018-12-09T08:33:25.925Z,22.07
2018-12-09T08:35:54.098Z,22.07
2018-12-09T08:38:22.224Z,18.53
2018-12-09T08:40:50.373Z,12.33
2018-12-09T08:43:18.538Z,21.03
2018-12-09T08:45:46.720Z,17.33
2018-12-09T08:48:15.118Z,21.73
2018-12-09T08:50:43.277Z,24.43
2018-12-09T08:53:11.417Z,19.70
2018-12-09T08:55:39.537Z,20.30
2018-12-09T08:58:07.802Z,17.67
2018-12-09T09:00:35.901Z,13.13
2018-12-09T09:03:04.015Z,20.93
2018-12-09T09:05:32.137Z,15.63
2018-12-09T09:08:01.040Z,15.17
2018-12-09T09:10:29.249Z,17.33
2018-12-09T09:12:57.506Z,18.40
2018-12-09T09:15:25.790Z,20.40
2018-12-09T09:17:53.953Z,19.73
2018-12-09T09:20:22.081Z,17.53
2018-12-09T09:22:50.225Z,19.50
2018-12-09T09:25:18.433Z,23.57
2018-12-09T09:27:46.577Z,16.23
2018-12-09T09:30:15.258Z,17.43
2018-12-09T09:32:43.461Z,19.03
2018-12-09T09:35:11.631Z,15.17
2018-12-09T09:37:39.723Z,17.20
2018-12-09T09:40:08.259Z,17.17
2018-12-09T09:42:36.414Z,13.67
2018-12-09T09:45:04.970Z,15.90
2018-12-09T09:47:33.135Z,18.43
2018-12-09T09:50:01.269Z,19.37
2018-12-09T09:52:29.386Z,15.10
2018-12-09T09:54:57.501Z,18.27
2018-12-09T09:57:25.641Z,16.27
2018-12-09T09:59:53.796Z,19.37
2018-12-09T10:02:22.118Z,16.40
2018-12-09T10:04:50.266Z,19.37
2018-12-09T10:07:18.453Z,15.60
2018-12-09T10:09:46.586Z,13.27
2018-12-09T10:12:14.785Z,21.40
2018-12-09T10:14:42.932Z,17.03
2018-12-09T10:17:11.096Z,13.83
2018-12-09T10:19:39.293Z,21.27
2018-12-09T10:22:07.449Z,15.77
2018-12-09T10:24:35.600Z,16.07
2018-12-09T10:27:03.828Z,15.27
2018-12-09T10:29:31.970Z,15.17
2018-12-09T10:32:00.196Z,9.60
2018-12-09T10:34:28.300Z,12.53
2018-12-09T10:36:56.548Z,10.43
2018-12-09T10:39:24.660Z,7.10
2018-12-09T10:41:52.800Z,4.40
2018-12-09T10:44:20.908Z,8.23
2018-12-09T10:46:49.022Z,5.67
2018-12-09T10:49:17.152Z,4.30
2018-12-09T10:51:45.436Z,6.07
2018-12-09T10:54:13.686Z,7.83
2018-12-09T10:56:41.856Z,9.03
2018-12-09T10:59:10.009Z,7.37
2018-12-09T11:01:40.053Z,13.83
2018-12-09T11:04:08.238Z,6.83
2018-12-09T11:06:36.781Z,12.67
2018-12-09T11:09:05.812Z,10.13
2018-12-09T11:11:34.069Z,10.00
2018-12-09T11:14:02.203Z,12.67
2018-12-09T11:16:30.322Z,12.93
2018-12-09T11:18:58.448Z,12.30
2018-12-09T11:21:30.492Z,21.10
2018-12-09T11:23:56.689Z,15.10
2018-12-09T11:26:24.831Z,16.70
2018-12-09T11:28:52.973Z,14.63
2018-12-09T11:31:21.178Z,18.27
2018-12-09T11:33:49.389Z,14.77
2018-12-09T11:36:17.533Z,12.50
2018-12-09T11:38:45.758Z,14.90
2018-12-09T11:41:14.046Z,8.83
2018-12-09T11:43:42.217Z,12.67
2018-12-09T11:46:10.362Z,10.50
2018-12-09T11:48:38.492Z,14.87
2018-12-09T11:51:06.692Z,10.57
2018-12-09T11:53:36.641Z,11.30
2018-12-09T11:56:04.976Z,11.93
2018-12-09T11:58:33.786Z,6.23
2018-12-09T12:01:02.629Z,11.97
2018-12-09T12:03:30.838Z,10.17
2018-12-09T12:05:59.752Z,9.37
2018-12-09T12:08:27.894Z,15.70
2018-12-09T12:10:56.052Z,9.70
2018-12-09T12:13:24.661Z,12.67
2018-12-09T12:15:52.758Z,6.87
2018-12-09T12:18:20.860Z,12.50
2018-12-09T12:20:49.091Z,12.60
2018-12-09T12:23:17.186Z,6.60
2018-12-09T12:25:45.326Z,15.67
2018-12-09T12:28:13.498Z,14.07
2018-12-09T12:30:41.593Z,10.50
2018-12-09T12:33:09.804Z,17.87
2018-12-09T12:35:37.938Z,12.43
2018-12-09T12:38:06.052Z,17.30
2018-12-09T12:40:34.189Z,11.27
2018-12-09T12:43:02.306Z,18.57
2018-12-09T12:45:30.557Z,15.67
2018-12-09T12:47:58.710Z,19.47
2018-12-09T12:50:26.832Z,15.67
2018-12-09T12:52:55.023Z,16.23
2018-12-09T12:55:23.282Z,12.50
2018-12-09T12:57:51.441Z,14.10
2018-12-09T13:00:19.547Z,13.90
2018-12-09T13:02:47.706Z,14.23
2018-12-09T13:05:15.943Z,12.60
2018-12-09T13:07:44.116Z,13.57
2018-12-09T13:10:12.229Z,17.57
2018-12-09T13:12:40.389Z,10.47
2018-12-09T13:15:08.837Z,9.20
2018-12-09T13:17:36.982Z,6.63
2018-12-09T13:20:05.783Z,10.80
2018-12-09T13:22:33.969Z,6.97
2018-12-09T13:25:02.095Z,14.17
2018-12-09T13:27:30.334Z,11.43
2018-12-09T13:29:58.486Z,14.50
2018-12-09T13:32:26.608Z,15.30
2018-12-09T13:34:54.775Z,16.77
2018-12-09T13:37:23.024Z,19.73
2018-12-09T13:39:51.128Z,17.57
2018-12-09T13:42:19.251Z,18.33
2018-12-09T13:44:47.437Z,21.90
2018-12-09T13:47:15.597Z,23.13
2018-12-09T13:49:43.709Z,17.77
2018-12-09T13:52:11.826Z,19.00
2018-12-09T13:54:39.957Z,20.53
2018-12-09T13:57:08.122Z,21.53
2018-12-09T13:59:36.272Z,24.57
2018-12-09T14:02:04.434Z,19.37
2018-12-09T14:04:32.550Z,24.10
2018-12-09T14:07:00.715Z,19.73
2018-12-09T14:09:28.988Z,22.07
2018-12-09T14:11:57.150Z,26.37
2018-12-09T14:14:25.829Z,24.47
2018-12-09T14:16:54.193Z,24.87
2018-12-09T14:19:22.540Z,25.63
2018-12-09T14:21:50.715Z,20.97
2018-12-09T14:24:18.974Z,18.70
2018-12-09T14:26:47.081Z,19.10
2018-12-09T14:29:15.350Z,20.57
2018-12-09T14:31:44.096Z,18.77
2018-12-09T14:34:12.309Z,21.10
2018-12-09T14:36:40.510Z,23.23
2018-12-09T14:39:11.030Z,24.90
2018-12-09T14:41:40.210Z,22.53
2018-12-09T14:44:08.385Z,19.07
2018-12-09T14:46:36.544Z,24.00
2018-12-09T14:49:04.906Z,19.57
2018-12-09T14:51:33.705Z,22.97
2018-12-09T14:54:04.136Z,20.90
2018-12-09T14:56:32.298Z,18.00
2018-12-09T14:59:00.489Z,20.30
2018-12-09T15:01:29.661Z,16.23
2018-12-09T15:03:57.843Z,17.50
2018-12-09T15:06:26.535Z,15.33
2018-12-09T15:08:54.837Z,15.03
2018-12-09T15:11:23.233Z,15.93
2018-12-09T15:13:51.401Z,9.03
2018-12-09T15:16:20.378Z,13.77
2018-12-09T15:18:48.593Z,10.03
2018-12-09T15:21:16.739Z,12.07
2018-12-09T15:23:44.876Z,18.40
2018-12-09T15:26:12.998Z,14.00
2018-12-09T15:28:41.109Z,14.17
2018-12-09T15:31:09.296Z,16.43
2018-12-09T15:33:37.417Z,18.70
2018-12-09T15:36:05.524Z,17.20
2018-12-09T15:38:33.652Z,17.93
2018-12-09T15:41:01.783Z,11.80
2018-12-09T15:43:29.922Z,10.60
2018-12-09T15:45:58.053Z,13.03
2018-12-09T15:48:26.179Z,6.73
2018-12-09T15:50:54.544Z,8.90
2018-12-09T15:53:22.730Z,6.87
2018-12-09T15:55:50.897Z,9.80
2018-12-09T15:58:19.126Z,15.00
2018-12-09T16:00:52.771Z,11.17
2018-12-09T16:03:21.004Z,18.50
2018-12-09T16:05:49.194Z,14.60
2018-12-09T16:08:17.852Z,14.73
2018-12-09T16:10:46.189Z,23.17
2018-12-09T16:13:15.023Z,17.83
2018-12-09T16:15:43.206Z,15.13
2018-12-09T16:18:11.315Z,17.03
2018-12-09T16:20:39.481Z,16.80
2018-12-09T16:23:07.715Z,21.47
2018-12-09T16:25:35.890Z,16.80
2018-12-09T16:28:04.078Z,13.13
2018-12-09T16:30:32.604Z,12.33
2018-12-09T16:33:00.753Z,21.80
2018-12-09T16:35:28.895Z,19.27
2018-12-09T16:37:57.074Z,15.83
2018-12-09T16:40:25.309Z,27.50
2018-12-09T16:42:53.455Z,21.43
2018-12-09T16:45:21.614Z,21.27
2018-12-09T16:47:49.772Z,21.77
2018-12-09T16:50:17.972Z,20.27
2018-12-09T16:52:46.678Z,16.87
2018-12-09T16:55:14.843Z,17.57
2018-12-09T16:57:42.997Z,18.23
2018-12-09T17:00:11.160Z,17.20
2018-12-09T17:02:39.301Z,16.80
2018-12-09T17:05:07.441Z,21.53
2018-12-09T17:07:42.089Z,19.93
2018-12-09T17:10:05.967Z,14.47
2018-12-09T17:12:34.197Z,24.30
2018-12-09T17:15:02.392Z,14.30
2018-12-09T17:17:30.565Z,17.83
2018-12-09T17:20:05.895Z,25.00
2018-12-09T17:22:28.926Z,15.13
2018-12-09T17:24:57.086Z,17.37
2018-12-09T17:27:25.194Z,14.00
2018-12-09T17:29:53.351Z,18.57
2018-12-09T17:32:21.618Z,18.47
2018-12-09T17:34:49.735Z,18.97
2018-12-09T17:37:17.930Z,21.30
2018-12-09T17:39:46.074Z,19.70
2018-12-09T17:42:14.625Z,21.40
2018-12-09T17:44:42.814Z,32.47
2018-12-09T17:47:10.977Z,22.60
2018-12-09T17:49:39.136Z,17.03
2018-12-09T17:52:07.270Z,11.47
2018-12-09T17:54:35.423Z,16.70
2018-12-09T17:57:03.598Z,20.17
2018-12-09T17:59:31.837Z,14.53
2018-12-09T18:02:00.051Z,18.90
2018-12-09T18:04:28.191Z,21.57
2018-12-09T18:06:56.297Z,18.40
2018-12-09T18:09:55.361Z,17.47
2018-12-09T18:12:23.506Z,20.00
2018-12-09T18:14:51.921Z,21.27
2018-12-09T18:17:20.077Z,17.57
2018-12-09T18:19:48.209Z,23.80
2018-12-09T18:22:16.335Z,19.57
2018-12-09T18:24:44.528Z,16.57
2018-12-09T18:27:12.690Z,16.83
2018-12-09T18:29:40.853Z,19.90
2018-12-09T18:32:08.968Z,15.20
2018-12-09T18:34:37.149Z,13.60
2018-12-09T18:37:05.425Z,20.47
2018-12-09T18:39:33.551Z,22.03
2018-12-09T18:42:01.756Z,23.50
2018-12-09T18:44:29.977Z,20.83
2018-12-09T18:46:59.094Z,13.77
2018-12-09T18:49:27.418Z,14.37
2018-12-09T18:51:55.556Z,16.63
2018-12-09T18:54:23.702Z,19.07
2018-12-09T18:56:51.834Z,17.57
2018-12-09T18:59:20.337Z,17.33
2018-12-09T19:01:48.491Z,14.40
2018-12-09T19:04:16.706Z,15.97
2018-12-09T19:06:44.957Z,13.03
2018-12-09T19:09:13.712Z,19.40
2018-12-09T19:11:43.652Z,24.50
2018-12-09T19:14:12.734Z,12.30
2018-12-09T19:16:40.977Z,16.43
2018-12-09T19:19:09.137Z,15.47
2018-12-09T19:21:37.445Z,18.60
2018-12-09T19:24:06.635Z,13.60
2018-12-09T19:26:34.809Z,17.10
2018-12-09T19:29:02.989Z,19.93
2018-12-09T19:31:31.136Z,25.40
2018-12-09T19:33:59.352Z,19.83
2018-12-09T19:36:27.495Z,22.17
2018-12-09T19:38:55.749Z,18.47
2018-12-09T19:41:23.894Z,16.57
2018-12-09T19:43:52.031Z,22.90
2018-12-09T19:46:20.604Z,16.73
2018-12-09T19:48:48.893Z,21.57
2018-12-09T19:51:17.032Z,20.87
2018-12-09T19:53:45.264Z,20.37
2018-12-09T19:56:13.389Z,16.20
2018-12-09T19:58:42.751Z,19.70
2018-12-09T20:01:11.694Z,18.60
2018-12-09T20:03:40.347Z,23.87
2018-12-09T20:06:09.040Z,16.20
2018-12-09T20:08:37.217Z,16.47
2018-12-09T20:11:05.393Z,16.47
2018-12-09T20:13:33.539Z,16.70
2018-12-09T20:16:01.805Z,12.77
2018-12-09T20:18:30.010Z,16.93
2018-12-09T20:20:59.074Z,18.57
2018-12-09T20:23:27.291Z,14.87
2018-12-09T20:25:55.718Z,11.23
2018-12-09T20:28:24.210Z,12.63
2018-12-09T20:30:52.425Z,9.80
2018-12-09T20:33:20.715Z,11.90
2018-12-09T20:35:49.146Z,13.47
2018-12-09T20:38:17.288Z,14.37
2018-12-09T20:40:45.489Z,15.37
2018-12-09T20:43:13.641Z,16.10
2018-12-09T20:45:41.796Z,17.33
2018-12-09T20:48:13.565Z,14.70
2018-12-09T20:50:40.134Z,22.03
2018-12-09T20:53:08.271Z,21.63
2018-12-09T20:55:36.433Z,20.80
2018-12-09T20:58:04.636Z,20.77
2018-12-09T21:00:32.768Z,14.70
2018-12-09T21:03:00.918Z,18.37
2018-12-09T21:05:29.090Z,20.83
2018-12-09T21:07:57.340Z,15.60
2018-12-09T21:10:25.482Z,16.93
2018-12-09T21:12:53.614Z,16.37
2018-12-09T21:15:21.736Z,18.83
2018-12-09T21:17:49.912Z,16.90
2018-12-09T21:20:18.093Z,22.00
2018-12-09T21:22:46.253Z,21.50
2018-12-09T21:25:14.379Z,20.30
2018-12-09T21:27:42.498Z,21.57
2018-12-09T21:30:10.697Z,20.97
2018-12-09T21:32:38.853Z,23.23
2018-12-09T21:35:07.206Z,23.20
2018-12-09T21:37:35.325Z,24.53
2018-12-09T21:40:03.950Z,26.70
2018-12-09T21:42:32.078Z,15.27
2018-12-09T21:45:00.178Z,23.20
2018-12-09T21:47:28.406Z,26.33
2018-12-09T21:49:56.545Z,27.87
2018-12-09T21:52:24.661Z,19.83
2018-12-09T21:54:52.846Z,24.50
2018-12-09T21:57:20.989Z,23.27
2018-12-09T21:59:49.133Z,36.40
2018-12-09T22:02:17.281Z,23.50
2018-12-09T22:04:45.388Z,23.07
2018-12-09T22:07:13.514Z,22.87
2018-12-09T22:09:41.618Z,22.57
2018-12-09T22:12:09.800Z,17.50
2018-12-09T22:14:37.941Z,24.43
2018-12-09T22:17:06.064Z,22.67
2018-12-09T22:19:34.213Z,12.27
2018-12-09T22:22:02.498Z,15.73
2018-12-09T22:24:30.670Z,15.17
2018-12-09T22:26:58.817Z,20.60
2018-12-09T22:29:26.948Z,13.87
2018-12-09T22:31:55.088Z,25.57
2018-12-09T22:34:23.279Z,13.83
2018-12-09T22:36:51.456Z,22.27
2018-12-09T22:39:19.584Z,18.03
2018-12-09T22:41:47.701Z,18.13
2018-12-09T22:44:15.872Z,18.63
2018-12-09T22:46:44.623Z,19.83
2018-12-09T22:49:12.721Z,14.90
2018-12-09T22:51:40.927Z,18.50
2018-12-09T22:54:09.072Z,16.70
2018-12-09T22:56:37.205Z,12.70
2018-12-09T22:59:05.434Z,19.10
2018-12-09T23:01:33.550Z,13.87
2018-12-09T23:04:01.657Z,13.37
2018-12-09T23:06:29.816Z,18.03
2018-12-09T23:08:57.921Z,15.03
2018-12-09T23:11:26.101Z,9.43
2018-12-09T23:13:54.233Z,17.13
2018-12-09T23:16:22.421Z,12.20
2018-12-09T23:18:50.541Z,12.47
2018-12-09T23:21:18.674Z,18.13
2018-12-09T23:23:47.035Z,12.47
2018-12-09T23:26:15.209Z,10.87
2018-12-09T23:28:43.354Z,12.50
2018-12-09T23:31:11.479Z,7.80
2018-12-09T23:33:39.637Z,15.93
2018-12-09T23:36:07.750Z,14.33
2018-12-09T23:38:35.863Z,11.37
2018-12-09T23:41:03.973Z,12.37
2018-12-09T23:43:32.130Z,12.63
2018-12-09T23:46:00.280Z,10.37
2018-12-09T23:48:28.484Z,5.73
2018-12-09T23:50:56.620Z,8.30
2018-12-09T23:53:25.920Z,9.47
2018-12-09T23:55:54.105Z,10.77
2018-12-09T23:58:22.245Z,10.73
